createdAt,value
2019-03-17T00:03:10.464Z,98660.20
2019-03-17T00:05:40.015Z,98653.74
2019-03-17T00:08:09.278Z,98650.52
2019-03-17T00:10:38.552Z,98641.03
2019-03-17T00:13:07.785Z,98638.38
2019-03-17T00:15:37.287Z,98627.27
2019-03-17T00:18:06.569Z,98630.98
2019-03-17T00:20:36.150Z,98632.91
2019-03-17T00:23:05.854Z,98636.87
2019-03-17T00:25:35.088Z,98635.81
2019-03-17T00:28:04.474Z,98627.98
2019-03-17T00:30:33.774Z,98633.05
2019-03-17T00:33:03.015Z,98635.49
2019-03-17T00:35:32.234Z,98620.56
2019-03-17T00:38:02.103Z,98625.98
2019-03-17T00:40:31.302Z,98615.71
2019-03-17T00:43:00.860Z,98611.67
2019-03-17T00:45:30.082Z,98612.00
2019-03-17T00:47:59.449Z,98605.73
2019-03-17T00:50:29.217Z,98606.20
2019-03-17T00:52:58.492Z,98603.52
2019-03-17T00:55:28.125Z,98597.81
2019-03-17T00:57:59.581Z,98605.87
2019-03-17T01:00:28.756Z,98594.80
2019-03-17T01:02:57.994Z,98593.44
2019-03-17T01:05:27.780Z,98593.77
2019-03-17T01:07:57.427Z,98585.91
2019-03-17T01:10:27.032Z,98572.09
2019-03-17T01:12:56.309Z,98578.03
2019-03-17T01:15:25.555Z,98576.19
2019-03-17T01:17:54.850Z,98574.91
2019-03-17T01:20:24.405Z,98574.17
2019-03-17T01:22:53.657Z,98562.25
2019-03-17T01:25:22.882Z,98567.11
2019-03-17T01:27:52.402Z,98566.86
2019-03-17T01:30:21.939Z,98565.53
2019-03-17T01:32:51.501Z,98556.30
2019-03-17T01:35:20.734Z,98546.27
2019-03-17T01:37:50.025Z,98539.02
2019-03-17T01:40:19.541Z,98535.77
2019-03-17T01:42:48.803Z,98536.30
2019-03-17T01:45:18.026Z,98530.34
2019-03-17T01:47:47.607Z,98534.08
2019-03-17T01:50:17.134Z,98534.60
2019-03-17T01:52:46.387Z,98523.52
2019-03-17T01:55:15.610Z,98517.88
2019-03-17T01:57:45.123Z,98515.72
2019-03-17T02:00:14.534Z,98500.55
2019-03-17T02:02:43.770Z,98488.20
2019-03-17T02:05:22.149Z,98496.95
2019-03-17T02:07:44.029Z,98481.36
2019-03-17T02:13:09.291Z,98478.51
2019-03-17T02:15:38.560Z,98466.70
2019-03-17T02:18:07.814Z,98474.34
2019-03-17T02:20:37.330Z,98469.75
2019-03-17T02:23:06.869Z,98463.06
2019-03-17T02:25:36.450Z,98458.20
2019-03-17T02:28:05.673Z,98470.70
2019-03-17T02:30:35.351Z,98466.42
2019-03-17T02:33:04.865Z,98465.61
2019-03-17T02:35:39.636Z,98462.61
2019-03-17T02:38:05.473Z,98466.69
2019-03-17T02:40:34.735Z,98471.58
2019-03-17T02:43:04.227Z,98469.39
2019-03-17T02:45:33.510Z,98467.39
2019-03-17T02:48:02.753Z,98465.25
2019-03-17T02:50:32.006Z,98463.58
2019-03-17T02:53:01.232Z,98447.68
2019-03-17T02:55:30.768Z,98442.56
2019-03-17T02:58:00.025Z,98436.30
2019-03-17T03:00:29.300Z,98445.17
2019-03-17T03:02:58.618Z,98446.97
2019-03-17T03:05:27.856Z,98446.30
2019-03-17T03:07:57.090Z,98441.67
2019-03-17T03:10:26.364Z,98445.73
2019-03-17T03:12:55.604Z,98438.47
2019-03-17T03:15:25.166Z,98442.80
2019-03-17T03:17:54.679Z,98442.75
2019-03-17T03:20:23.965Z,98440.09
2019-03-17T03:22:53.231Z,98431.44
2019-03-17T03:25:22.521Z,98431.66
2019-03-17T03:27:51.781Z,98429.13
2019-03-17T03:30:21.081Z,98425.13
2019-03-17T03:32:50.381Z,98414.90
2019-03-17T03:35:19.664Z,98410.19
2019-03-17T03:37:48.893Z,98397.80
2019-03-17T03:40:18.117Z,98389.98
2019-03-17T03:42:47.385Z,98382.29
2019-03-17T03:45:16.601Z,98380.99
2019-03-17T03:47:45.847Z,98380.50
2019-03-17T03:50:15.085Z,98374.09
2019-03-17T03:52:44.329Z,98375.88
2019-03-17T03:55:13.569Z,98375.63
2019-03-17T03:57:42.866Z,98390.65
2019-03-17T04:00:12.422Z,98386.98
2019-03-17T04:02:41.716Z,98392.13
2019-03-17T04:05:10.931Z,98389.96
2019-03-17T04:07:40.262Z,98395.84
2019-03-17T04:13:18.580Z,98387.34
2019-03-17T04:15:47.887Z,98387.63
2019-03-17T04:18:17.436Z,98385.11
2019-03-17T04:20:46.705Z,98379.36
2019-03-17T04:23:15.970Z,98377.15
2019-03-17T04:25:45.474Z,98375.77
2019-03-17T04:28:15.015Z,98383.56
2019-03-17T04:30:44.324Z,98384.02
2019-03-17T04:33:13.552Z,98383.29
2019-03-17T04:35:42.771Z,98378.66
2019-03-17T04:38:12.392Z,98371.11
2019-03-17T04:40:41.654Z,98373.78
2019-03-17T04:43:11.179Z,98377.87
2019-03-17T04:45:40.703Z,98355.27
2019-03-17T04:48:10.233Z,98383.41
2019-03-17T04:50:39.464Z,98377.52
2019-03-17T04:53:08.714Z,98373.52
2019-03-17T04:55:38.232Z,98376.28
2019-03-17T04:58:07.840Z,98378.95
2019-03-17T05:00:37.069Z,98368.70
2019-03-17T05:03:06.616Z,98365.78
2019-03-17T05:05:35.868Z,98367.32
2019-03-17T05:08:05.120Z,98368.94
2019-03-17T05:10:34.381Z,98360.52
2019-03-17T05:13:03.986Z,98358.95
2019-03-17T05:15:33.212Z,98346.48
2019-03-17T05:18:02.487Z,98357.66
2019-03-17T05:20:32.008Z,98356.09
2019-03-17T05:23:01.530Z,98355.85
2019-03-17T05:25:31.068Z,98356.70
2019-03-17T05:28:00.592Z,98364.33
2019-03-17T05:30:30.338Z,98366.67
2019-03-17T05:32:59.644Z,98369.14
2019-03-17T05:35:28.903Z,98369.44
2019-03-17T05:37:58.446Z,98369.20
2019-03-17T05:40:27.733Z,98367.30
2019-03-17T05:42:57.235Z,98358.41
2019-03-17T05:45:26.460Z,98367.33
2019-03-17T05:47:55.736Z,98378.69
2019-03-17T05:50:24.978Z,98374.66
2019-03-17T05:52:54.256Z,98374.98
2019-03-17T05:55:23.820Z,98379.85
2019-03-17T05:57:53.058Z,98385.34
2019-03-17T06:00:22.359Z,98373.68
2019-03-17T06:02:51.785Z,98378.58
2019-03-17T06:06:17.864Z,98387.20
2019-03-17T06:11:22.587Z,98395.91
2019-03-17T06:13:54.091Z,98403.76
2019-03-17T06:16:23.499Z,98395.13
2019-03-17T06:18:52.957Z,98404.05
2019-03-17T06:21:22.436Z,98401.91
2019-03-17T06:23:52.234Z,98401.09
2019-03-17T06:26:21.721Z,98400.86
2019-03-17T06:28:51.167Z,98419.00
2019-03-17T06:31:20.728Z,98405.18
2019-03-17T06:37:01.463Z,98410.56
2019-03-17T06:39:31.171Z,98401.69
2019-03-17T06:42:19.787Z,98415.22
2019-03-17T06:47:45.057Z,98410.37
2019-03-17T06:50:15.624Z,98424.45
2019-03-17T06:53:04.995Z,98421.55
2019-03-17T06:55:54.031Z,98422.91
2019-03-17T06:58:23.284Z,98446.51
2019-03-17T07:01:11.948Z,98438.13
2019-03-17T07:03:41.814Z,98449.47
2019-03-17T07:06:11.527Z,98437.31
2019-03-17T07:09:00.198Z,98436.55
2019-03-17T07:14:27.388Z,98451.16
2019-03-17T07:16:57.428Z,98456.64
2019-03-17T07:22:34.070Z,98465.61
2019-03-17T07:25:24.000Z,98460.75
2019-03-17T07:27:53.386Z,98464.27
2019-03-17T07:30:50.688Z,98476.69
2019-03-17T07:36:10.782Z,98487.50
2019-03-17T07:38:40.426Z,98491.81
2019-03-17T07:41:12.544Z,98491.52
2019-03-17T07:43:41.872Z,98478.53
2019-03-17T07:46:11.385Z,98491.78
2019-03-17T07:49:21.798Z,98506.38
2019-03-17T07:52:11.233Z,98506.69
2019-03-17T07:58:13.006Z,98521.69
2019-03-17T08:01:02.337Z,98561.83
2019-03-17T08:03:31.652Z,98560.92
2019-03-17T08:06:02.656Z,98592.42
2019-03-17T08:08:32.056Z,98567.37
2019-03-17T08:13:36.953Z,98602.92
2019-03-17T08:16:26.987Z,98603.98
2019-03-17T08:18:57.500Z,98608.56
2019-03-17T08:21:26.795Z,98604.50
2019-03-17T08:23:56.146Z,98609.88
2019-03-17T08:26:25.498Z,98626.56
2019-03-17T08:29:14.107Z,98616.91
2019-03-17T08:31:43.488Z,98636.29
2019-03-17T08:37:05.414Z,98640.88
2019-03-17T08:39:55.514Z,98631.18
2019-03-17T08:42:27.810Z,98610.98
2019-03-17T08:44:57.432Z,98603.98
2019-03-17T08:47:26.773Z,98605.63
2019-03-17T08:50:15.024Z,98602.38
2019-03-17T08:52:44.405Z,98616.41
2019-03-17T08:55:14.020Z,98618.05
2019-03-17T09:00:56.819Z,98615.92
2019-03-17T09:03:49.538Z,98621.84
2019-03-17T09:06:20.154Z,98600.30
2019-03-17T09:09:27.524Z,98597.59
2019-03-17T09:12:10.230Z,98587.36
2019-03-17T09:14:28.324Z,98585.73
2019-03-17T09:17:18.222Z,98598.92
2019-03-17T09:19:48.800Z,98614.29
2019-03-17T09:22:18.150Z,98614.30
2019-03-17T09:24:47.944Z,98612.41
2019-03-17T09:27:17.392Z,98622.39
2019-03-17T09:32:23.061Z,98619.41
2019-03-17T09:34:52.394Z,98616.66
2019-03-17T09:37:22.022Z,98610.44
2019-03-17T09:39:51.989Z,98618.25
2019-03-17T09:42:21.333Z,98624.47
2019-03-17T09:44:50.742Z,98625.28
2019-03-17T09:47:41.315Z,98625.77
2019-03-17T09:50:12.765Z,98634.41
2019-03-17T09:52:42.057Z,98628.17
2019-03-17T09:55:50.753Z,98636.21
2019-03-17T09:58:20.379Z,98624.80
2019-03-17T10:00:49.606Z,98612.84
2019-03-17T10:03:18.890Z,98631.72
2019-03-17T10:05:49.693Z,98640.24
2019-03-17T10:08:19.537Z,98628.92
2019-03-17T10:10:49.369Z,98625.48
2019-03-17T10:13:18.938Z,98655.16
2019-03-17T10:15:48.522Z,98663.27
2019-03-17T10:18:17.762Z,98660.55
2019-03-17T10:20:47.089Z,98642.13
2019-03-17T10:23:16.854Z,98655.66
2019-03-17T10:25:46.107Z,98664.81
2019-03-17T10:28:15.724Z,98654.23
2019-03-17T10:30:44.994Z,98662.68
2019-03-17T10:33:14.506Z,98666.12
2019-03-17T10:35:43.798Z,98677.70
2019-03-17T10:38:13.038Z,98675.64
2019-03-17T10:40:42.334Z,98692.71
2019-03-17T10:43:11.542Z,98684.19
2019-03-17T10:45:41.322Z,98677.44
2019-03-17T10:48:10.813Z,98674.46
2019-03-17T10:50:49.644Z,98670.41
2019-03-17T10:53:11.322Z,98667.73
2019-03-17T10:55:40.635Z,98674.21
2019-03-17T10:58:10.314Z,98668.52
2019-03-17T11:00:39.957Z,98677.69
2019-03-17T11:03:09.511Z,98693.32
2019-03-17T11:05:38.798Z,98698.72
2019-03-17T11:08:08.122Z,98690.61
2019-03-17T11:10:37.468Z,98697.78
2019-03-17T11:13:06.851Z,98695.45
2019-03-17T11:15:55.592Z,98696.75
2019-03-17T11:18:24.901Z,98704.66
2019-03-17T11:20:55.985Z,98708.67
2019-03-17T11:23:25.429Z,98711.57
2019-03-17T11:28:56.858Z,98717.80
2019-03-17T11:31:33.724Z,98729.92
2019-03-17T11:37:06.978Z,98784.78
2019-03-17T12:36:03.729Z,98898.61
2019-03-17T12:38:59.047Z,98889.08
2019-03-17T12:51:19.326Z,98897.02
2019-03-17T12:57:25.623Z,98909.98
2019-03-17T13:04:26.496Z,98919.62
2019-03-17T13:30:38.361Z,98932.88
2019-03-17T13:33:07.721Z,98954.97
2019-03-17T13:35:37.424Z,98974.81
2019-03-17T13:38:06.718Z,98975.59
2019-03-17T13:40:36.032Z,98969.89
2019-03-17T15:33:13.919Z,99059.40
2019-03-17T15:54:33.100Z,99047.50
2019-03-17T15:57:21.592Z,99043.43
2019-03-17T15:59:51.271Z,99046.94
2019-03-17T16:13:03.606Z,99075.23
2019-03-17T16:15:33.883Z,99082.70
2019-03-17T16:18:03.420Z,99078.86
2019-03-17T16:20:32.740Z,99082.88
2019-03-17T16:23:01.989Z,99090.36
2019-03-17T16:25:31.644Z,99092.80
2019-03-17T16:28:01.560Z,99102.72
2019-03-17T16:30:30.837Z,99093.58
2019-03-17T16:33:00.159Z,99091.62
2019-03-17T16:35:29.452Z,99120.72
2019-03-17T16:37:59.022Z,99100.39
2019-03-17T16:40:28.316Z,99118.05
2019-03-17T16:42:57.606Z,99123.64
2019-03-17T16:45:27.235Z,99120.44
2019-03-17T16:47:56.916Z,99127.75
2019-03-17T16:50:26.304Z,99116.37
2019-03-17T16:52:55.720Z,99131.04
2019-03-17T16:55:47.279Z,99125.26
2019-03-17T16:58:16.592Z,99129.67
2019-03-17T17:00:45.871Z,99142.59
2019-03-17T17:03:15.511Z,99146.69
2019-03-17T17:05:45.093Z,99150.11
2019-03-17T17:22:40.380Z,99187.52
2019-03-17T17:25:09.830Z,99191.28
2019-03-17T17:27:39.232Z,99177.66
2019-03-17T17:44:02.636Z,99198.49
2019-03-17T17:46:31.938Z,99200.19
2019-03-17T17:49:01.227Z,99202.16
2019-03-17T17:51:30.507Z,99199.95
2019-03-17T17:53:59.796Z,99210.69
2019-03-17T17:56:29.412Z,99208.27
2019-03-17T17:58:58.704Z,99223.86
2019-03-17T18:01:27.973Z,99239.28
2019-03-17T18:03:57.668Z,99242.22
2019-03-17T18:06:27.806Z,99237.36
2019-03-17T18:08:57.208Z,99266.44
2019-03-17T18:11:28.775Z,99274.19
2019-03-17T18:13:58.657Z,99288.19
2019-03-17T18:16:28.364Z,99300.14
2019-03-17T18:18:57.978Z,99280.76
2019-03-17T18:21:27.276Z,99327.86
2019-03-17T18:23:56.571Z,99327.22
2019-03-17T18:26:25.844Z,99362.47
2019-03-17T18:29:14.908Z,99377.23
2019-03-17T18:31:44.195Z,99382.81
2019-03-17T18:34:13.816Z,99400.47
2019-03-17T18:36:43.121Z,99398.63
2019-03-17T18:39:12.422Z,99416.94
2019-03-17T18:41:41.725Z,99433.14
2019-03-17T18:44:11.041Z,99422.73
2019-03-17T18:46:40.284Z,99430.45
2019-03-17T18:49:09.818Z,99435.07
2019-03-17T18:51:39.076Z,99435.02
2019-03-17T18:54:08.350Z,99440.43
2019-03-17T18:56:37.898Z,99441.49
2019-03-17T18:59:07.152Z,99444.77
2019-03-17T19:01:36.752Z,99456.15
2019-03-17T19:04:06.242Z,99450.71
2019-03-17T19:06:35.649Z,99458.59
2019-03-17T19:09:10.032Z,99468.21
2019-03-17T19:14:28.652Z,99476.77
2019-03-17T19:16:58.222Z,99490.91
2019-03-17T19:19:27.599Z,99497.46
2019-03-17T19:45:15.480Z,99492.41
2019-03-17T20:05:22.371Z,99463.20
2019-03-17T20:07:51.944Z,99454.56
2019-03-17T20:10:22.361Z,99455.55
2019-03-17T20:12:52.376Z,99455.91
2019-03-17T20:22:13.279Z,99457.26
2019-03-17T20:33:10.214Z,99460.69
2019-03-17T20:44:18.549Z,99476.92
2019-03-17T20:50:33.525Z,99469.55
2019-03-17T20:53:03.052Z,99487.12
2019-03-17T21:06:49.821Z,99489.34
2019-03-17T21:24:01.743Z,99503.95
2019-03-17T21:30:58.646Z,99511.45
2019-03-17T21:33:27.947Z,99516.61
2019-03-17T21:35:57.502Z,99514.37
2019-03-17T21:38:27.191Z,99515.47
2019-03-17T21:41:06.925Z,99516.61
2019-03-17T21:43:27.888Z,99518.75
2019-03-17T21:45:57.087Z,99523.08
2019-03-17T21:48:26.393Z,99529.70
2019-03-17T21:50:55.735Z,99534.63
2019-03-17T21:53:25.244Z,99532.98
2019-03-17T21:55:54.514Z,99536.64
2019-03-17T21:58:24.487Z,99536.77
2019-03-17T22:00:53.747Z,99531.80
2019-03-17T22:03:23.312Z,99534.84
2019-03-17T22:05:52.826Z,99531.41
2019-03-17T22:08:23.124Z,99530.22
2019-03-17T22:10:52.654Z,99528.72
2019-03-17T22:13:41.330Z,99533.80
2019-03-17T22:16:10.546Z,99531.88
2019-03-17T22:18:40.768Z,99536.17
2019-03-17T22:21:10.449Z,99533.57
2019-03-17T22:23:39.868Z,99535.58
2019-03-17T22:26:09.179Z,99544.45
2019-03-17T22:28:39.155Z,99549.51
2019-03-17T22:31:08.392Z,99544.06
2019-03-17T22:33:38.056Z,99544.02
2019-03-17T22:36:07.651Z,99546.70
2019-03-17T22:38:36.955Z,99546.83
2019-03-17T22:41:06.321Z,99548.05
2019-03-17T22:43:35.591Z,99555.34
2019-03-17T22:46:04.946Z,99556.83
2019-03-17T22:48:34.207Z,99560.38
2019-03-17T22:51:03.472Z,99565.00
2019-03-17T22:53:32.832Z,99565.23
2019-03-17T22:56:02.495Z,99567.98
2019-03-17T22:58:32.153Z,99566.88
2019-03-17T23:01:01.663Z,99576.11
2019-03-17T23:03:31.968Z,99578.98
2019-03-17T23:06:01.181Z,99581.07
2019-03-17T23:08:30.438Z,99585.39
2019-03-17T23:11:00.086Z,99585.39
2019-03-17T23:13:29.692Z,99580.39
2019-03-17T23:15:59.241Z,99579.97
2019-03-17T23:18:28.820Z,99582.33
2019-03-17T23:20:58.363Z,99584.59
2019-03-17T23:23:27.657Z,99578.95
2019-03-17T23:25:57.035Z,99587.36
2019-03-17T23:28:26.910Z,99588.94
2019-03-17T23:30:56.446Z,99590.05
2019-03-17T23:33:25.892Z,99591.02
2019-03-17T23:35:55.224Z,99565.58
2019-03-17T23:38:24.633Z,99582.35
2019-03-17T23:40:54.426Z,99583.41
2019-03-17T23:43:23.862Z,99586.25
2019-03-17T23:45:53.253Z,99578.47
2019-03-17T23:48:22.663Z,99585.33
2019-03-17T23:50:52.199Z,99553.80
2019-03-17T23:53:21.772Z,99588.22
2019-03-17T23:55:51.228Z,99590.45
2019-03-17T23:58:20.937Z,99603.53
